DLH5PR EDDS-EDDM
Flight info
| Callsign | DLH5PR |
|---|---|
| Flight time | 0h 25m |
| Altitude | 19000 |
| Route | ABTAL4H ABTAL L173 RIXED Y161 RIDAR Z98 WLD T104 ROKIL ROKIL1A |
| Aircraft | A319/M-SDE3FGHIRWY/LB1 |
Departure
| Time | 2026-04-30 19:26 |
|---|---|
| Airport | Stuttgart Airport (EDDS) |
Arrival
| Time | 2026-04-30 19:52 |
|---|---|
| Airport | Munich Airport (EDDM) |
| Time | Latitude | Longitude | Altitude | Speed | Heading |
|---|---|---|---|---|---|
| 2026-04-30 19:02 | 48.68925 | 9.19580 | 1288 ft | 0 kts | 344° |
| 2026-04-30 19:17 | 48.68912 | 9.19586 | 1314 ft | 4 kts | 344° |
| 2026-04-30 19:17 | 48.68865 | 9.19604 | 1311 ft | 4 kts | 12° |
| 2026-04-30 19:17 | 48.68846 | 9.19585 | 1310 ft | 4 kts | 66° |
| 2026-04-30 19:18 | 48.68842 | 9.19570 | 1310 ft | 1 kts | 74° |
| 2026-04-30 19:21 | 48.68843 | 9.19574 | 1310 ft | 2 kts | 74° |
| 2026-04-30 19:21 | 48.68864 | 9.19684 | 1308 ft | 9 kts | 74° |
| 2026-04-30 19:22 | 48.68879 | 9.19874 | 1302 ft | 10 kts | 135° |
| 2026-04-30 19:22 | 48.68699 | 9.19980 | 1290 ft | 8 kts | 164° |
| 2026-04-30 19:23 | 48.68675 | 9.19990 | 1288 ft | 0 kts | 164° |
| 2026-04-30 19:24 | 48.68674 | 9.19991 | 1288 ft | 2 kts | 164° |
| 2026-04-30 19:24 | 48.68588 | 9.20028 | 1285 ft | 5 kts | 164° |
| 2026-04-30 19:25 | 48.68583 | 9.20076 | 1283 ft | 3 kts | 71° |
| 2026-04-30 19:26 | 48.68793 | 9.21167 | 1265 ft | 130 kts | 74° |
| 2026-04-30 19:26 | 48.69364 | 9.24334 | 2380 ft | 165 kts | 77° |
| 2026-04-30 19:26 | 48.69694 | 9.26144 | 2841 ft | 191 kts | 77° |
| 2026-04-30 19:27 | 48.70540 | 9.30535 | 4061 ft | 237 kts | 76° |
| 2026-04-30 19:27 | 48.71480 | 9.35449 | 6121 ft | 251 kts | 76° |
| 2026-04-30 19:28 | 48.71968 | 9.38016 | 7145 ft | 256 kts | 75° |
| 2026-04-30 19:28 | 48.72980 | 9.43334 | 9148 ft | 268 kts | 75° |
| 2026-04-30 19:29 | 48.74033 | 9.48885 | 10856 ft | 289 kts | 75° |
| 2026-04-30 19:29 | 48.74608 | 9.51936 | 11265 ft | 313 kts | 74° |
| 2026-04-30 19:30 | 48.76472 | 9.61878 | 13653 ft | 335 kts | 74° |
| 2026-04-30 19:30 | 48.77750 | 9.68731 | 15316 ft | 341 kts | 73° |
| 2026-04-30 19:31 | 48.78965 | 9.75749 | 16847 ft | 349 kts | 81° |
| 2026-04-30 19:31 | 48.78854 | 9.79455 | 17574 ft | 358 kts | 99° |
| 2026-04-30 19:31 | 48.77493 | 9.86825 | 19007 ft | 367 kts | 103° |
| 2026-04-30 19:32 | 48.76778 | 9.90548 | 19253 ft | 368 kts | 103° |
| 2026-04-30 19:32 | 48.75965 | 9.94208 | 19327 ft | 378 kts | 107° |
| 2026-04-30 19:32 | 48.75028 | 9.97982 | 19336 ft | 385 kts | 108° |
| 2026-04-30 19:32 | 48.74040 | 10.01757 | 19348 ft | 386 kts | 109° |
| 2026-04-30 19:33 | 48.73030 | 10.05525 | 19342 ft | 386 kts | 109° |
| 2026-04-30 19:33 | 48.72018 | 10.09294 | 19346 ft | 386 kts | 108° |
| 2026-04-30 19:33 | 48.71011 | 10.13058 | 19343 ft | 385 kts | 108° |
| 2026-04-30 19:33 | 48.70013 | 10.16819 | 19360 ft | 385 kts | 108° |
| 2026-04-30 19:34 | 48.69020 | 10.20585 | 19361 ft | 385 kts | 108° |
| 2026-04-30 19:34 | 48.68031 | 10.24347 | 19359 ft | 385 kts | 108° |
| 2026-04-30 19:34 | 48.66053 | 10.31880 | 19366 ft | 385 kts | 108° |
| 2026-04-30 19:35 | 48.65063 | 10.35636 | 19342 ft | 380 kts | 108° |
| 2026-04-30 19:35 | 48.64090 | 10.39306 | 18953 ft | 373 kts | 108° |
| 2026-04-30 19:35 | 48.63132 | 10.42924 | 18438 ft | 369 kts | 108° |
| 2026-04-30 19:35 | 48.62181 | 10.46508 | 17889 ft | 366 kts | 108° |
| 2026-04-30 19:36 | 48.61235 | 10.50056 | 17328 ft | 362 kts | 108° |
| 2026-04-30 19:36 | 48.60298 | 10.53570 | 16770 ft | 359 kts | 108° |
| 2026-04-30 19:36 | 48.58446 | 10.60497 | 15659 ft | 353 kts | 108° |
| 2026-04-30 19:37 | 48.57526 | 10.63919 | 15119 ft | 350 kts | 109° |
| 2026-04-30 19:37 | 48.56615 | 10.67308 | 14584 ft | 347 kts | 109° |
| 2026-04-30 19:37 | 48.55711 | 10.70671 | 14041 ft | 344 kts | 109° |
| 2026-04-30 19:37 | 48.54815 | 10.74009 | 13453 ft | 341 kts | 109° |
| 2026-04-30 19:38 | 48.53941 | 10.77274 | 12872 ft | 338 kts | 109° |
| 2026-04-30 19:38 | 48.53064 | 10.80552 | 12290 ft | 335 kts | 109° |
| 2026-04-30 19:38 | 48.52191 | 10.83798 | 11713 ft | 333 kts | 110° |
| 2026-04-30 19:38 | 48.51097 | 10.86865 | 11136 ft | 332 kts | 118° |
| 2026-04-30 19:39 | 48.49888 | 10.89805 | 10687 ft | 326 kts | 119° |
| 2026-04-30 19:39 | 48.48720 | 10.92623 | 10565 ft | 309 kts | 119° |
| 2026-04-30 19:39 | 48.47602 | 10.95306 | 10443 ft | 295 kts | 119° |
| 2026-04-30 19:39 | 48.46530 | 10.97869 | 10322 ft | 282 kts | 119° |
| 2026-04-30 19:40 | 48.45497 | 11.00336 | 10051 ft | 276 kts | 119° |
| 2026-04-30 19:40 | 48.44480 | 11.02767 | 9667 ft | 273 kts | 119° |
| 2026-04-30 19:40 | 48.43475 | 11.05177 | 9357 ft | 271 kts | 119° |
| 2026-04-30 19:40 | 48.42475 | 11.07581 | 9096 ft | 271 kts | 119° |
| 2026-04-30 19:41 | 48.41478 | 11.09982 | 8840 ft | 270 kts | 120° |
| 2026-04-30 19:41 | 48.40492 | 11.12374 | 8521 ft | 267 kts | 119° |
| 2026-04-30 19:41 | 48.39516 | 11.14746 | 8153 ft | 264 kts | 119° |
| 2026-04-30 19:41 | 48.38576 | 11.17033 | 8032 ft | 251 kts | 119° |
| 2026-04-30 19:42 | 48.37682 | 11.19207 | 7900 ft | 238 kts | 119° |
| 2026-04-30 19:42 | 48.36826 | 11.21292 | 7723 ft | 229 kts | 119° |
| 2026-04-30 19:42 | 48.36018 | 11.23252 | 7597 ft | 218 kts | 119° |
| 2026-04-30 19:42 | 48.35235 | 11.25152 | 7430 ft | 211 kts | 119° |
| 2026-04-30 19:43 | 48.34466 | 11.27017 | 7160 ft | 209 kts | 120° |
| 2026-04-30 19:43 | 48.33705 | 11.28873 | 6871 ft | 208 kts | 119° |
| 2026-04-30 19:43 | 48.32994 | 11.30745 | 6598 ft | 203 kts | 109° |
| 2026-04-30 19:44 | 48.32935 | 11.34705 | 6331 ft | 183 kts | 83° |
| 2026-04-30 19:44 | 48.33088 | 11.36577 | 6172 ft | 178 kts | 83° |
| 2026-04-30 19:44 | 48.33186 | 11.37784 | 6081 ft | 174 kts | 83° |
| 2026-04-30 19:44 | 48.33330 | 11.39555 | 5967 ft | 168 kts | 83° |
| 2026-04-30 19:45 | 48.33469 | 11.41278 | 5780 ft | 165 kts | 83° |
| 2026-04-30 19:45 | 48.33608 | 11.43000 | 5581 ft | 162 kts | 84° |
| 2026-04-30 19:45 | 48.33741 | 11.44657 | 5370 ft | 159 kts | 84° |
| 2026-04-30 19:45 | 48.33873 | 11.46303 | 5121 ft | 158 kts | 84° |
| 2026-04-30 19:46 | 48.34004 | 11.47932 | 5013 ft | 157 kts | 83° |
| 2026-04-30 19:46 | 48.34134 | 11.49557 | 4994 ft | 157 kts | 84° |
| 2026-04-30 19:46 | 48.34264 | 11.51184 | 4870 ft | 155 kts | 83° |
| 2026-04-30 19:46 | 48.34390 | 11.52765 | 4693 ft | 150 kts | 84° |
| 2026-04-30 19:47 | 48.34511 | 11.54286 | 4508 ft | 143 kts | 84° |
| 2026-04-30 19:47 | 48.34623 | 11.55692 | 4333 ft | 129 kts | 84° |
| 2026-04-30 19:47 | 48.34727 | 11.57004 | 4166 ft | 124 kts | 84° |
| 2026-04-30 19:47 | 48.34828 | 11.58278 | 3997 ft | 122 kts | 84° |
| 2026-04-30 19:48 | 48.34928 | 11.59549 | 3835 ft | 122 kts | 84° |
| 2026-04-30 19:48 | 48.35026 | 11.60795 | 3675 ft | 121 kts | 85° |
| 2026-04-30 19:48 | 48.35125 | 11.62047 | 3511 ft | 120 kts | 85° |
| 2026-04-30 19:48 | 48.35225 | 11.63298 | 3357 ft | 120 kts | 85° |
| 2026-04-30 19:49 | 48.35323 | 11.64547 | 3171 ft | 120 kts | 85° |
| 2026-04-30 19:49 | 48.35519 | 11.67033 | 2840 ft | 119 kts | 85° |
| 2026-04-30 19:49 | 48.35634 | 11.68269 | 2703 ft | 122 kts | 83° |
| 2026-04-30 19:50 | 48.35723 | 11.69533 | 2527 ft | 122 kts | 86° |
| 2026-04-30 19:50 | 48.35812 | 11.70790 | 2297 ft | 121 kts | 84° |
| 2026-04-30 19:50 | 48.35911 | 11.72043 | 2118 ft | 121 kts | 83° |
| 2026-04-30 19:50 | 48.36010 | 11.73291 | 1977 ft | 120 kts | 84° |
| 2026-04-30 19:51 | 48.36099 | 11.74532 | 1836 ft | 119 kts | 84° |
| 2026-04-30 19:51 | 48.36201 | 11.75776 | 1672 ft | 120 kts | 83° |
| 2026-04-30 19:51 | 48.36293 | 11.77023 | 1506 ft | 119 kts | 83° |
| 2026-04-30 19:51 | 48.36383 | 11.78168 | 1479 ft | 92 kts | 83° |
| 2026-04-30 19:52 | 48.36438 | 11.78865 | 1476 ft | 40 kts | 83° |
| 2026-04-30 19:52 | 48.36453 | 11.79131 | 1480 ft | 22 kts | 91° |
| 2026-04-30 19:52 | 48.36423 | 11.79352 | 1474 ft | 22 kts | 108° |
| 2026-04-30 19:52 | 48.36371 | 11.79532 | 1480 ft | 12 kts | 113° |
| 2026-04-30 19:53 | 48.36336 | 11.79654 | 1485 ft | 14 kts | 113° |
| 2026-04-30 19:53 | 48.36300 | 11.79770 | 1482 ft | 9 kts | 130° |
| 2026-04-30 19:53 | 48.36239 | 11.79758 | 1477 ft | 10 kts | 230° |
| 2026-04-30 19:53 | 48.36227 | 11.79647 | 1485 ft | 11 kts | 264° |
| 2026-04-30 19:54 | 48.36219 | 11.79542 | 1485 ft | 9 kts | 264° |
| 2026-04-30 19:54 | 48.36202 | 11.79464 | 1481 ft | 7 kts | 212° |
| 2026-04-30 19:54 | 48.36162 | 11.79467 | 1476 ft | 4 kts | 172° |
| 2026-04-30 19:54 | 48.36130 | 11.79473 | 1485 ft | 5 kts | 174° |
| 2026-04-30 19:55 | 48.36094 | 11.79479 | 1483 ft | 6 kts | 173° |
| 2026-04-30 19:55 | 48.36048 | 11.79487 | 1475 ft | 7 kts | 173° |
| 2026-04-30 19:55 | 48.35991 | 11.79497 | 1475 ft | 9 kts | 173° |
| 2026-04-30 19:55 | 48.35925 | 11.79508 | 1479 ft | 10 kts | 174° |
| 2026-04-30 19:56 | 48.35849 | 11.79521 | 1485 ft | 12 kts | 173° |
| 2026-04-30 19:56 | 48.35798 | 11.79594 | 1477 ft | 12 kts | 85° |
| 2026-04-30 19:56 | 48.35809 | 11.79729 | 1485 ft | 14 kts | 83° |
| 2026-04-30 19:56 | 48.35820 | 11.79877 | 1481 ft | 10 kts | 83° |
| 2026-04-30 19:57 | 48.35828 | 11.79987 | 1485 ft | 10 kts | 83° |
| 2026-04-30 19:57 | 48.35789 | 11.80064 | 1485 ft | 11 kts | 169° |
| 2026-04-30 19:57 | 48.35773 | 11.80067 | 1485 ft | 2 kts | 173° |
| 2026-04-30 19:57 | 48.35758 | 11.80070 | 1476 ft | 3 kts | 173° |
| 2026-04-30 19:58 | 48.35732 | 11.80075 | 1485 ft | 5 kts | 174° |
| 2026-04-30 19:58 | 48.35714 | 11.80033 | 1485 ft | 7 kts | 269° |
| 2026-04-30 19:58 | 48.35711 | 11.79975 | 1485 ft | 3 kts | 263° |
| 2026-04-30 19:58 | 48.35709 | 11.79960 | 1485 ft | 0 kts | 263° |